sensor_id;sensor_type;location;lat;lon;timestamp;P1;durP1;ratioP1;P2;durP2;ratioP2
7583;SDS011;3833;41.764;26.204;2022-08-19T00:01:31;10.03;;;7.20;;
7583;SDS011;3833;41.764;26.204;2022-08-19T00:04:00;10.67;;;7.57;;
7583;SDS011;3833;41.764;26.204;2022-08-19T00:06:30;12.03;;;8.50;;
7583;SDS011;3833;41.764;26.204;2022-08-19T00:08:57;9.03;;;7.83;;
7583;SDS011;3833;41.764;26.204;2022-08-19T00:11:27;11.83;;;7.53;;
7583;SDS011;3833;41.764;26.204;2022-08-19T00:13:54;8.13;;;7.33;;
7583;SDS011;3833;41.764;26.204;2022-08-19T00:16:21;8.33;;;7.53;;
7583;SDS011;3833;41.764;26.204;2022-08-19T00:18:49;8.97;;;7.80;;
7583;SDS011;3833;41.764;26.204;2022-08-19T00:21:16;9.90;;;7.43;;
7583;SDS011;3833;41.764;26.204;2022-08-19T00:23:43;12.53;;;7.50;;
7583;SDS011;3833;41.764;26.204;2022-08-19T00:26:10;10.40;;;7.93;;
7583;SDS011;3833;41.764;26.204;2022-08-19T00:28:38;9.63;;;8.27;;
7583;SDS011;3833;41.764;26.204;2022-08-19T00:31:06;10.67;;;8.30;;
7583;SDS011;3833;41.764;26.204;2022-08-19T00:33:34;11.43;;;8.53;;
7583;SDS011;3833;41.764;26.204;2022-08-19T00:36:02;11.17;;;8.30;;
7583;SDS011;3833;41.764;26.204;2022-08-19T00:38:31;11.70;;;8.07;;
7583;SDS011;3833;41.764;26.204;2022-08-19T00:40:59;9.13;;;8.17;;
7583;SDS011;3833;41.764;26.204;2022-08-19T00:43:26;13.03;;;8.37;;
7583;SDS011;3833;41.764;26.204;2022-08-19T00:45:55;9.17;;;8.27;;
7583;SDS011;3833;41.764;26.204;2022-08-19T00:48:22;10.10;;;7.80;;
7583;SDS011;3833;41.764;26.204;2022-08-19T00:50:49;9.30;;;7.97;;
7583;SDS011;3833;41.764;26.204;2022-08-19T00:53:20;8.63;;;7.77;;
7583;SDS011;3833;41.764;26.204;2022-08-19T00:55:50;9.10;;;7.97;;
7583;SDS011;3833;41.764;26.204;2022-08-19T00:58:20;12.50;;;8.13;;
7583;SDS011;3833;41.764;26.204;2022-08-19T01:00:50;11.97;;;8.07;;
7583;SDS011;3833;41.764;26.204;2022-08-19T01:03:19;9.27;;;8.03;;
7583;SDS011;3833;41.764;26.204;2022-08-19T01:05:47;11.67;;;8.13;;
7583;SDS011;3833;41.764;26.204;2022-08-19T01:08:19;10.00;;;7.53;;
7583;SDS011;3833;41.764;26.204;2022-08-19T01:10:47;11.03;;;7.80;;
7583;SDS011;3833;41.764;26.204;2022-08-19T01:13:16;10.43;;;7.80;;
7583;SDS011;3833;41.764;26.204;2022-08-19T01:15:47;9.20;;;8.30;;
7583;SDS011;3833;41.764;26.204;2022-08-19T01:18:19;9.30;;;8.03;;
7583;SDS011;3833;41.764;26.204;2022-08-19T01:20:47;10.07;;;8.70;;
7583;SDS011;3833;41.764;26.204;2022-08-19T01:23:15;15.00;;;8.37;;
7583;SDS011;3833;41.764;26.204;2022-08-19T01:25:44;9.00;;;7.80;;
7583;SDS011;3833;41.764;26.204;2022-08-19T01:28:17;10.90;;;7.43;;
7583;SDS011;3833;41.764;26.204;2022-08-19T01:30:46;8.67;;;7.43;;
7583;SDS011;3833;41.764;26.204;2022-08-19T01:33:14;8.43;;;7.60;;
7583;SDS011;3833;41.764;26.204;2022-08-19T01:35:42;8.50;;;7.63;;
7583;SDS011;3833;41.764;26.204;2022-08-19T01:38:18;10.13;;;7.77;;
7583;SDS011;3833;41.764;26.204;2022-08-19T01:40:48;8.70;;;7.87;;
7583;SDS011;3833;41.764;26.204;2022-08-19T01:43:15;10.97;;;7.63;;
7583;SDS011;3833;41.764;26.204;2022-08-19T01:45:44;8.20;;;7.10;;
7583;SDS011;3833;41.764;26.204;2022-08-19T01:48:12;9.07;;;8.20;;
7583;SDS011;3833;41.764;26.204;2022-08-19T01:50:40;11.53;;;7.73;;
7583;SDS011;3833;41.764;26.204;2022-08-19T01:53:08;8.70;;;7.80;;
7583;SDS011;3833;41.764;26.204;2022-08-19T01:55:39;9.30;;;7.20;;
7583;SDS011;3833;41.764;26.204;2022-08-19T01:58:09;8.40;;;7.60;;
7583;SDS011;3833;41.764;26.204;2022-08-19T02:00:39;8.53;;;7.60;;
7583;SDS011;3833;41.764;26.204;2022-08-19T02:03:06;9.43;;;8.43;;
7583;SDS011;3833;41.764;26.204;2022-08-19T02:05:33;9.17;;;7.47;;
7583;SDS011;3833;41.764;26.204;2022-08-19T02:08:00;11.77;;;7.83;;
7583;SDS011;3833;41.764;26.204;2022-08-19T02:10:27;10.23;;;8.97;;
7583;SDS011;3833;41.764;26.204;2022-08-19T02:12:55;13.33;;;10.13;;
7583;SDS011;3833;41.764;26.204;2022-08-19T02:15:22;12.30;;;8.87;;
7583;SDS011;3833;41.764;26.204;2022-08-19T02:17:51;8.73;;;7.27;;
7583;SDS011;3833;41.764;26.204;2022-08-19T02:20:19;9.73;;;8.17;;
7583;SDS011;3833;41.764;26.204;2022-08-19T02:22:45;11.67;;;7.37;;
7583;SDS011;3833;41.764;26.204;2022-08-19T02:25:13;13.33;;;7.77;;
7583;SDS011;3833;41.764;26.204;2022-08-19T02:27:40;8.07;;;7.27;;
7583;SDS011;3833;41.764;26.204;2022-08-19T02:30:10;9.03;;;7.43;;
7583;SDS011;3833;41.764;26.204;2022-08-19T02:32:40;9.87;;;7.50;;
7583;SDS011;3833;41.764;26.204;2022-08-19T02:35:07;8.63;;;7.73;;
7583;SDS011;3833;41.764;26.204;2022-08-19T02:37:35;9.20;;;7.80;;
7583;SDS011;3833;41.764;26.204;2022-08-19T02:40:31;8.13;;;7.33;;
7583;SDS011;3833;41.764;26.204;2022-08-19T02:42:59;10.27;;;8.43;;
7583;SDS011;3833;41.764;26.204;2022-08-19T02:45:30;9.87;;;8.03;;
7583;SDS011;3833;41.764;26.204;2022-08-19T02:47:59;12.00;;;8.40;;
7583;SDS011;3833;41.764;26.204;2022-08-19T02:50:26;10.97;;;7.90;;
7583;SDS011;3833;41.764;26.204;2022-08-19T02:52:52;8.67;;;7.77;;
7583;SDS011;3833;41.764;26.204;2022-08-19T02:55:19;10.97;;;8.27;;
7583;SDS011;3833;41.764;26.204;2022-08-19T02:57:46;10.63;;;7.97;;
7583;SDS011;3833;41.764;26.204;2022-08-19T03:00:14;12.13;;;10.00;;
7583;SDS011;3833;41.764;26.204;2022-08-19T03:02:42;10.03;;;8.97;;
7583;SDS011;3833;41.764;26.204;2022-08-19T03:05:09;13.57;;;8.73;;
7583;SDS011;3833;41.764;26.204;2022-08-19T03:07:37;12.67;;;9.47;;
7583;SDS011;3833;41.764;26.204;2022-08-19T03:10:04;11.33;;;7.53;;
7583;SDS011;3833;41.764;26.204;2022-08-19T03:12:34;11.43;;;8.70;;
7583;SDS011;3833;41.764;26.204;2022-08-19T03:15:03;11.47;;;8.80;;
7583;SDS011;3833;41.764;26.204;2022-08-19T03:17:32;15.07;;;8.73;;
7583;SDS011;3833;41.764;26.204;2022-08-19T03:20:02;10.40;;;8.53;;
7583;SDS011;3833;41.764;26.204;2022-08-19T03:22:30;9.77;;;8.77;;
7583;SDS011;3833;41.764;26.204;2022-08-19T03:24:57;10.90;;;9.03;;
7583;SDS011;3833;41.764;26.204;2022-08-19T03:27:24;10.00;;;8.70;;
7583;SDS011;3833;41.764;26.204;2022-08-19T03:29:51;11.10;;;9.33;;
7583;SDS011;3833;41.764;26.204;2022-08-19T03:32:18;14.33;;;9.30;;
7583;SDS011;3833;41.764;26.204;2022-08-19T03:34:45;15.13;;;8.93;;
7583;SDS011;3833;41.764;26.204;2022-08-19T03:37:13;12.30;;;8.50;;
7583;SDS011;3833;41.764;26.204;2022-08-19T03:39:40;10.93;;;8.50;;
7583;SDS011;3833;41.764;26.204;2022-08-19T03:42:08;10.27;;;9.07;;
7583;SDS011;3833;41.764;26.204;2022-08-19T03:44:35;10.83;;;9.07;;
7583;SDS011;3833;41.764;26.204;2022-08-19T03:47:02;13.33;;;8.90;;
7583;SDS011;3833;41.764;26.204;2022-08-19T03:49:31;9.67;;;8.40;;
7583;SDS011;3833;41.764;26.204;2022-08-19T03:52:00;16.93;;;8.77;;
7583;SDS011;3833;41.764;26.204;2022-08-19T03:54:29;11.93;;;8.10;;
7583;SDS011;3833;41.764;26.204;2022-08-19T03:56:56;9.63;;;8.47;;
7583;SDS011;3833;41.764;26.204;2022-08-19T03:59:24;11.77;;;8.60;;
7583;SDS011;3833;41.764;26.204;2022-08-19T04:01:52;8.93;;;8.03;;
7583;SDS011;3833;41.764;26.204;2022-08-19T04:04:20;10.27;;;9.13;;
7583;SDS011;3833;41.764;26.204;2022-08-19T04:06:47;9.57;;;7.83;;
7583;SDS011;3833;41.764;26.204;2022-08-19T04:09:14;19.30;;;8.90;;
7583;SDS011;3833;41.764;26.204;2022-08-19T04:11:43;10.40;;;9.10;;
7583;SDS011;3833;41.764;26.204;2022-08-19T04:14:14;10.83;;;9.10;;
7583;SDS011;3833;41.764;26.204;2022-08-19T04:16:43;10.97;;;8.63;;
7583;SDS011;3833;41.764;26.204;2022-08-19T04:19:11;10.20;;;9.20;;
7583;SDS011;3833;41.764;26.204;2022-08-19T04:21:39;13.87;;;9.37;;
7583;SDS011;3833;41.764;26.204;2022-08-19T04:24:06;10.37;;;8.23;;
7583;SDS011;3833;41.764;26.204;2022-08-19T04:26:37;11.37;;;9.67;;
7583;SDS011;3833;41.764;26.204;2022-08-19T04:29:06;8.80;;;7.90;;
7583;SDS011;3833;41.764;26.204;2022-08-19T04:31:34;21.20;;;9.87;;
7583;SDS011;3833;41.764;26.204;2022-08-19T04:34:05;15.20;;;9.47;;
7583;SDS011;3833;41.764;26.204;2022-08-19T04:36:36;11.30;;;9.20;;
7583;SDS011;3833;41.764;26.204;2022-08-19T04:39:07;10.50;;;9.30;;
7583;SDS011;3833;41.764;26.204;2022-08-19T04:41:36;12.50;;;10.57;;
7583;SDS011;3833;41.764;26.204;2022-08-19T04:44:22;13.03;;;10.23;;
7583;SDS011;3833;41.764;26.204;2022-08-19T04:46:50;14.43;;;9.27;;
7583;SDS011;3833;41.764;26.204;2022-08-19T04:49:18;11.87;;;9.13;;
7583;SDS011;3833;41.764;26.204;2022-08-19T04:51:47;12.63;;;9.73;;
7583;SDS011;3833;41.764;26.204;2022-08-19T04:54:14;14.23;;;8.90;;
7583;SDS011;3833;41.764;26.204;2022-08-19T04:56:42;16.87;;;10.20;;
7583;SDS011;3833;41.764;26.204;2022-08-19T04:59:09;13.40;;;8.83;;
7583;SDS011;3833;41.764;26.204;2022-08-19T05:01:38;10.50;;;9.40;;
7583;SDS011;3833;41.764;26.204;2022-08-19T05:04:05;12.17;;;10.27;;
7583;SDS011;3833;41.764;26.204;2022-08-19T05:06:33;10.43;;;9.43;;
7583;SDS011;3833;41.764;26.204;2022-08-19T05:09:00;12.37;;;10.03;;
7583;SDS011;3833;41.764;26.204;2022-08-19T05:11:29;14.33;;;9.93;;
7583;SDS011;3833;41.764;26.204;2022-08-19T05:13:58;12.80;;;8.93;;
7583;SDS011;3833;41.764;26.204;2022-08-19T05:16:25;10.63;;;8.83;;
7583;SDS011;3833;41.764;26.204;2022-08-19T05:18:54;11.27;;;9.90;;
7583;SDS011;3833;41.764;26.204;2022-08-19T05:21:38;12.33;;;9.67;;
7583;SDS011;3833;41.764;26.204;2022-08-19T05:24:24;13.93;;;10.03;;
7583;SDS011;3833;41.764;26.204;2022-08-19T05:26:51;10.47;;;9.37;;
7583;SDS011;3833;41.764;26.204;2022-08-19T05:29:22;13.00;;;9.80;;
7583;SDS011;3833;41.764;26.204;2022-08-19T05:31:50;13.50;;;9.27;;
7583;SDS011;3833;41.764;26.204;2022-08-19T05:34:20;12.97;;;9.60;;
7583;SDS011;3833;41.764;26.204;2022-08-19T05:36:49;10.17;;;8.90;;
7583;SDS011;3833;41.764;26.204;2022-08-19T05:39:22;11.57;;;10.37;;
7583;SDS011;3833;41.764;26.204;2022-08-19T05:41:52;11.33;;;9.83;;
7583;SDS011;3833;41.764;26.204;2022-08-19T05:44:22;12.30;;;9.27;;
7583;SDS011;3833;41.764;26.204;2022-08-19T05:46:50;10.60;;;8.20;;
7583;SDS011;3833;41.764;26.204;2022-08-19T05:49:20;12.67;;;9.57;;
7583;SDS011;3833;41.764;26.204;2022-08-19T05:51:48;11.07;;;9.40;;
7583;SDS011;3833;41.764;26.204;2022-08-19T05:54:15;9.73;;;8.67;;
7583;SDS011;3833;41.764;26.204;2022-08-19T05:56:42;13.80;;;10.17;;
7583;SDS011;3833;41.764;26.204;2022-08-19T05:59:12;11.47;;;9.40;;
7583;SDS011;3833;41.764;26.204;2022-08-19T06:01:42;15.73;;;9.83;;
7583;SDS011;3833;41.764;26.204;2022-08-19T06:04:10;17.07;;;9.83;;
7583;SDS011;3833;41.764;26.204;2022-08-19T06:06:40;13.70;;;9.83;;
7583;SDS011;3833;41.764;26.204;2022-08-19T06:09:07;10.87;;;9.87;;
7583;SDS011;3833;41.764;26.204;2022-08-19T06:11:36;12.53;;;10.03;;
7583;SDS011;3833;41.764;26.204;2022-08-19T06:14:06;17.10;;;9.53;;
7583;SDS011;3833;41.764;26.204;2022-08-19T06:16:36;19.37;;;10.50;;
7583;SDS011;3833;41.764;26.204;2022-08-19T06:19:05;10.27;;;9.17;;
7583;SDS011;3833;41.764;26.204;2022-08-19T06:21:34;16.43;;;10.43;;
7583;SDS011;3833;41.764;26.204;2022-08-19T06:24:05;16.37;;;10.03;;
7583;SDS011;3833;41.764;26.204;2022-08-19T06:26:33;13.93;;;9.73;;
7583;SDS011;3833;41.764;26.204;2022-08-19T06:29:01;12.07;;;8.87;;
7583;SDS011;3833;41.764;26.204;2022-08-19T06:31:28;11.10;;;8.93;;
7583;SDS011;3833;41.764;26.204;2022-08-19T06:33:58;10.93;;;8.47;;
7583;SDS011;3833;41.764;26.204;2022-08-19T06:36:27;12.00;;;8.83;;
7583;SDS011;3833;41.764;26.204;2022-08-19T06:38:56;10.73;;;9.20;;
7583;SDS011;3833;41.764;26.204;2022-08-19T06:41:25;11.67;;;8.47;;
7583;SDS011;3833;41.764;26.204;2022-08-19T06:43:53;11.40;;;9.07;;
7583;SDS011;3833;41.764;26.204;2022-08-19T06:46:21;17.50;;;9.10;;
7583;SDS011;3833;41.764;26.204;2022-08-19T06:48:48;15.10;;;9.30;;
7583;SDS011;3833;41.764;26.204;2022-08-19T06:51:18;27.13;;;9.63;;
7583;SDS011;3833;41.764;26.204;2022-08-19T06:53:45;16.13;;;9.37;;
7583;SDS011;3833;41.764;26.204;2022-08-19T06:56:13;22.37;;;10.00;;
7583;SDS011;3833;41.764;26.204;2022-08-19T06:58:42;9.80;;;7.97;;
7583;SDS011;3833;41.764;26.204;2022-08-19T07:01:10;9.67;;;8.53;;
7583;SDS011;3833;41.764;26.204;2022-08-19T07:03:37;15.17;;;9.07;;
7583;SDS011;3833;41.764;26.204;2022-08-19T07:06:05;8.50;;;7.50;;
7583;SDS011;3833;41.764;26.204;2022-08-19T07:08:34;8.97;;;8.17;;
7583;SDS011;3833;41.764;26.204;2022-08-19T07:11:02;12.70;;;8.57;;
7583;SDS011;3833;41.764;26.204;2022-08-19T07:13:31;8.70;;;7.80;;
7583;SDS011;3833;41.764;26.204;2022-08-19T07:16:00;14.00;;;8.03;;
7583;SDS011;3833;41.764;26.204;2022-08-19T07:18:29;7.17;;;6.47;;
7583;SDS011;3833;41.764;26.204;2022-08-19T07:21:02;9.93;;;8.10;;
7583;SDS011;3833;41.764;26.204;2022-08-19T07:23:29;14.73;;;8.70;;
7583;SDS011;3833;41.764;26.204;2022-08-19T07:25:56;8.97;;;7.30;;
7583;SDS011;3833;41.764;26.204;2022-08-19T07:28:23;9.30;;;7.77;;
7583;SDS011;3833;41.764;26.204;2022-08-19T07:30:50;9.13;;;7.10;;
7583;SDS011;3833;41.764;26.204;2022-08-19T07:33:18;9.80;;;7.90;;
7583;SDS011;3833;41.764;26.204;2022-08-19T07:35:45;9.60;;;7.53;;
7583;SDS011;3833;41.764;26.204;2022-08-19T07:38:12;13.73;;;8.30;;
7583;SDS011;3833;41.764;26.204;2022-08-19T07:40:40;8.17;;;7.37;;
7583;SDS011;3833;41.764;26.204;2022-08-19T07:43:08;11.23;;;7.63;;
7583;SDS011;3833;41.764;26.204;2022-08-19T07:45:35;21.87;;;9.37;;
7583;SDS011;3833;41.764;26.204;2022-08-19T07:48:02;7.57;;;6.87;;
7583;SDS011;3833;41.764;26.204;2022-08-19T07:50:31;9.60;;;7.97;;
7583;SDS011;3833;41.764;26.204;2022-08-19T07:52:58;8.13;;;6.40;;
7583;SDS011;3833;41.764;26.204;2022-08-19T07:55:25;9.67;;;6.43;;
7583;SDS011;3833;41.764;26.204;2022-08-19T07:57:54;9.13;;;6.87;;
7583;SDS011;3833;41.764;26.204;2022-08-19T08:00:20;10.33;;;6.53;;
7583;SDS011;3833;41.764;26.204;2022-08-19T08:02:47;8.47;;;7.10;;
7583;SDS011;3833;41.764;26.204;2022-08-19T08:05:14;9.73;;;7.23;;
7583;SDS011;3833;41.764;26.204;2022-08-19T08:08:00;10.00;;;6.70;;
7583;SDS011;3833;41.764;26.204;2022-08-19T08:10:44;7.33;;;6.10;;
7583;SDS011;3833;41.764;26.204;2022-08-19T08:13:11;8.73;;;7.27;;
7583;SDS011;3833;41.764;26.204;2022-08-19T08:15:38;6.73;;;6.10;;
7583;SDS011;3833;41.764;26.204;2022-08-19T08:18:05;10.13;;;7.17;;
7583;SDS011;3833;41.764;26.204;2022-08-19T08:20:32;11.47;;;7.00;;
7583;SDS011;3833;41.764;26.204;2022-08-19T08:23:01;7.50;;;6.80;;
7583;SDS011;3833;41.764;26.204;2022-08-19T08:25:46;8.37;;;7.17;;
7583;SDS011;3833;41.764;26.204;2022-08-19T08:28:13;8.67;;;7.33;;
7583;SDS011;3833;41.764;26.204;2022-08-19T08:30:41;10.80;;;7.13;;
7583;SDS011;3833;41.764;26.204;2022-08-19T08:33:08;7.53;;;6.53;;
7583;SDS011;3833;41.764;26.204;2022-08-19T08:35:36;7.63;;;6.80;;
7583;SDS011;3833;41.764;26.204;2022-08-19T08:38:05;7.17;;;5.80;;
7583;SDS011;3833;41.764;26.204;2022-08-19T08:40:33;8.03;;;6.83;;
7583;SDS011;3833;41.764;26.204;2022-08-19T08:43:07;7.27;;;6.53;;
7583;SDS011;3833;41.764;26.204;2022-08-19T08:45:38;8.87;;;6.50;;
7583;SDS011;3833;41.764;26.204;2022-08-19T08:48:22;7.30;;;6.40;;
7583;SDS011;3833;41.764;26.204;2022-08-19T08:50:57;7.57;;;6.73;;
7583;SDS011;3833;41.764;26.204;2022-08-19T08:53:29;7.37;;;6.47;;
7583;SDS011;3833;41.764;26.204;2022-08-19T08:55:58;8.33;;;7.43;;
7583;SDS011;3833;41.764;26.204;2022-08-19T08:58:29;9.90;;;6.70;;
7583;SDS011;3833;41.764;26.204;2022-08-19T09:01:08;9.50;;;6.80;;
7583;SDS011;3833;41.764;26.204;2022-08-19T09:03:36;7.40;;;6.70;;
7583;SDS011;3833;41.764;26.204;2022-08-19T09:06:06;6.53;;;5.93;;
7583;SDS011;3833;41.764;26.204;2022-08-19T09:08:40;7.43;;;6.73;;
7583;SDS011;3833;41.764;26.204;2022-08-19T09:11:14;10.77;;;8.10;;
7583;SDS011;3833;41.764;26.204;2022-08-19T09:14:02;6.50;;;5.90;;
7583;SDS011;3833;41.764;26.204;2022-08-19T09:16:35;7.75;;;6.45;;
7583;SDS011;3833;41.764;26.204;2022-08-19T09:19:06;8.13;;;6.70;;
7583;SDS011;3833;41.764;26.204;2022-08-19T09:21:34;6.83;;;6.20;;
7583;SDS011;3833;41.764;26.204;2022-08-19T09:24:04;6.77;;;6.03;;
7583;SDS011;3833;41.764;26.204;2022-08-19T09:26:32;7.23;;;6.17;;
7583;SDS011;3833;41.764;26.204;2022-08-19T09:28:59;8.60;;;6.30;;
7583;SDS011;3833;41.764;26.204;2022-08-19T09:31:27;7.10;;;6.40;;
7583;SDS011;3833;41.764;26.204;2022-08-19T09:33:55;8.37;;;6.20;;
7583;SDS011;3833;41.764;26.204;2022-08-19T09:36:23;6.97;;;6.27;;
7583;SDS011;3833;41.764;26.204;2022-08-19T09:38:54;8.80;;;6.30;;
7583;SDS011;3833;41.764;26.204;2022-08-19T09:41:24;8.47;;;6.40;;
7583;SDS011;3833;41.764;26.204;2022-08-19T09:43:51;6.40;;;5.80;;
7583;SDS011;3833;41.764;26.204;2022-08-19T09:46:21;5.37;;;4.47;;
7583;SDS011;3833;41.764;26.204;2022-08-19T09:48:49;4.87;;;4.27;;
7583;SDS011;3833;41.764;26.204;2022-08-19T09:51:18;8.57;;;4.70;;
7583;SDS011;3833;41.764;26.204;2022-08-19T09:53:46;8.95;;;5.15;;
7583;SDS011;3833;41.764;26.204;2022-08-19T09:56:15;32.22;;;7.60;;
7583;SDS011;3833;41.764;26.204;2022-08-19T09:58:45;5.13;;;4.05;;
7583;SDS011;3833;41.764;26.204;2022-08-19T10:01:15;27.35;;;6.97;;
7583;SDS011;3833;41.764;26.204;2022-08-19T10:03:46;8.88;;;4.80;;
7583;SDS011;3833;41.764;26.204;2022-08-19T10:06:15;8.90;;;4.75;;
7583;SDS011;3833;41.764;26.204;2022-08-19T10:08:42;13.00;;;5.30;;
7583;SDS011;3833;41.764;26.204;2022-08-19T10:11:09;9.25;;;4.90;;
7583;SDS011;3833;41.764;26.204;2022-08-19T10:13:36;10.48;;;5.53;;
7583;SDS011;3833;41.764;26.204;2022-08-19T10:16:06;5.50;;;4.13;;
7583;SDS011;3833;41.764;26.204;2022-08-19T10:18:35;5.70;;;5.10;;
7583;SDS011;3833;41.764;26.204;2022-08-19T10:21:04;6.80;;;5.07;;
7583;SDS011;3833;41.764;26.204;2022-08-19T10:23:36;9.07;;;5.00;;
7583;SDS011;3833;41.764;26.204;2022-08-19T10:26:04;8.52;;;4.57;;
7583;SDS011;3833;41.764;26.204;2022-08-19T10:28:33;6.88;;;4.57;;
7583;SDS011;3833;41.764;26.204;2022-08-19T10:31:07;4.53;;;4.22;;
7583;SDS011;3833;41.764;26.204;2022-08-19T10:33:36;14.88;;;5.13;;
7583;SDS011;3833;41.764;26.204;2022-08-19T10:36:04;5.55;;;4.78;;
7583;SDS011;3833;41.764;26.204;2022-08-19T10:38:33;6.60;;;4.55;;
7583;SDS011;3833;41.764;26.204;2022-08-19T10:41:06;6.25;;;4.43;;
7583;SDS011;3833;41.764;26.204;2022-08-19T10:43:33;8.70;;;4.45;;
7583;SDS011;3833;41.764;26.204;2022-08-19T10:46:04;5.20;;;4.70;;
7583;SDS011;3833;41.764;26.204;2022-08-19T10:48:33;14.00;;;4.90;;
7583;SDS011;3833;41.764;26.204;2022-08-19T10:51:03;12.52;;;5.15;;
7583;SDS011;3833;41.764;26.204;2022-08-19T10:53:48;7.55;;;4.53;;
7583;SDS011;3833;41.764;26.204;2022-08-19T10:56:15;4.97;;;4.57;;
7583;SDS011;3833;41.764;26.204;2022-08-19T11:02:42;6.93;;;4.32;;
7583;SDS011;3833;41.764;26.204;2022-08-19T11:05:09;18.50;;;5.60;;
7583;SDS011;3833;41.764;26.204;2022-08-19T11:07:37;7.35;;;4.80;;
7583;SDS011;3833;41.764;26.204;2022-08-19T11:10:04;4.43;;;4.07;;
7583;SDS011;3833;41.764;26.204;2022-08-19T11:12:32;7.10;;;4.63;;
7583;SDS011;3833;41.764;26.204;2022-08-19T11:15:03;8.52;;;5.13;;
7583;SDS011;3833;41.764;26.204;2022-08-19T11:17:31;5.03;;;4.50;;
7583;SDS011;3833;41.764;26.204;2022-08-19T11:19:59;4.47;;;4.03;;
7583;SDS011;3833;41.764;26.204;2022-08-19T11:22:29;4.60;;;4.20;;
7583;SDS011;3833;41.764;26.204;2022-08-19T11:24:56;6.50;;;5.00;;
7583;SDS011;3833;41.764;26.204;2022-08-19T11:27:23;14.57;;;5.88;;
7583;SDS011;3833;41.764;26.204;2022-08-19T11:29:50;10.02;;;4.82;;
7583;SDS011;3833;41.764;26.204;2022-08-19T11:32:17;4.88;;;4.38;;
7583;SDS011;3833;41.764;26.204;2022-08-19T11:34:44;6.53;;;4.75;;
7583;SDS011;3833;41.764;26.204;2022-08-19T11:37:13;6.47;;;4.32;;
7583;SDS011;3833;41.764;26.204;2022-08-19T11:39:40;6.70;;;5.28;;
7583;SDS011;3833;41.764;26.204;2022-08-19T11:42:07;6.95;;;4.50;;
7583;SDS011;3833;41.764;26.204;2022-08-19T11:51:20;4.53;;;4.07;;
7583;SDS011;3833;41.764;26.204;2022-08-19T12:00:23;6.18;;;5.60;;
7583;SDS011;3833;41.764;26.204;2022-08-19T12:02:49;5.57;;;5.07;;
7583;SDS011;3833;41.764;26.204;2022-08-19T12:05:18;9.20;;;5.38;;
7583;SDS011;3833;41.764;26.204;2022-08-19T12:07:45;6.07;;;4.22;;
7583;SDS011;3833;41.764;26.204;2022-08-19T12:10:12;6.97;;;4.90;;
7583;SDS011;3833;41.764;26.204;2022-08-19T12:12:40;7.95;;;6.00;;
7583;SDS011;3833;41.764;26.204;2022-08-19T12:15:11;4.93;;;4.53;;
7583;SDS011;3833;41.764;26.204;2022-08-19T12:17:39;6.55;;;4.72;;
7583;SDS011;3833;41.764;26.204;2022-08-19T12:20:07;5.97;;;5.38;;
7583;SDS011;3833;41.764;26.204;2022-08-19T12:22:35;8.25;;;4.53;;
7583;SDS011;3833;41.764;26.204;2022-08-19T12:25:03;7.38;;;5.38;;
7583;SDS011;3833;41.764;26.204;2022-08-19T12:27:31;6.22;;;5.47;;
7583;SDS011;3833;41.764;26.204;2022-08-19T12:29:58;5.32;;;4.90;;
7583;SDS011;3833;41.764;26.204;2022-08-19T12:32:28;6.35;;;5.18;;
7583;SDS011;3833;41.764;26.204;2022-08-19T12:34:55;7.85;;;5.65;;
7583;SDS011;3833;41.764;26.204;2022-08-19T12:37:22;6.65;;;5.38;;
7583;SDS011;3833;41.764;26.204;2022-08-19T12:39:49;5.78;;;4.88;;
7583;SDS011;3833;41.764;26.204;2022-08-19T12:42:16;5.68;;;5.10;;
7583;SDS011;3833;41.764;26.204;2022-08-19T12:44:43;7.22;;;5.32;;
7583;SDS011;3833;41.764;26.204;2022-08-19T12:47:11;6.47;;;5.80;;
7583;SDS011;3833;41.764;26.204;2022-08-19T12:49:41;5.25;;;4.70;;
7583;SDS011;3833;41.764;26.204;2022-08-19T12:52:09;10.05;;;5.95;;
7583;SDS011;3833;41.764;26.204;2022-08-19T12:54:40;6.40;;;5.20;;
7583;SDS011;3833;41.764;26.204;2022-08-19T12:57:07;5.25;;;4.75;;
7583;SDS011;3833;41.764;26.204;2022-08-19T12:59:35;6.20;;;5.60;;
7583;SDS011;3833;41.764;26.204;2022-08-19T13:02:02;5.50;;;4.93;;
7583;SDS011;3833;41.764;26.204;2022-08-19T13:04:30;5.95;;;5.35;;
7583;SDS011;3833;41.764;26.204;2022-08-19T13:06:58;6.00;;;4.68;;
7583;SDS011;3833;41.764;26.204;2022-08-19T13:09:25;6.63;;;5.25;;
7583;SDS011;3833;41.764;26.204;2022-08-19T13:11:52;5.55;;;4.97;;
7583;SDS011;3833;41.764;26.204;2022-08-19T13:14:20;5.75;;;5.25;;
7583;SDS011;3833;41.764;26.204;2022-08-19T13:16:46;5.50;;;4.85;;
7583;SDS011;3833;41.764;26.204;2022-08-19T13:19:13;7.78;;;5.47;;
7583;SDS011;3833;41.764;26.204;2022-08-19T13:21:40;6.45;;;4.82;;
7583;SDS011;3833;41.764;26.204;2022-08-19T13:24:08;5.60;;;5.00;;
7583;SDS011;3833;41.764;26.204;2022-08-19T13:26:35;7.50;;;4.90;;
7583;SDS011;3833;41.764;26.204;2022-08-19T13:29:02;8.40;;;5.05;;
7583;SDS011;3833;41.764;26.204;2022-08-19T13:31:46;5.60;;;5.07;;
7583;SDS011;3833;41.764;26.204;2022-08-19T13:34:32;9.20;;;5.28;;
7583;SDS011;3833;41.764;26.204;2022-08-19T13:37:00;111.55;;;15.05;;
7583;SDS011;3833;41.764;26.204;2022-08-19T13:39:30;5.40;;;4.90;;
7583;SDS011;3833;41.764;26.204;2022-08-19T13:41:58;5.68;;;4.40;;
7583;SDS011;3833;41.764;26.204;2022-08-19T13:44:25;5.82;;;4.50;;
7583;SDS011;3833;41.764;26.204;2022-08-19T13:46:59;8.40;;;4.68;;
7583;SDS011;3833;41.764;26.204;2022-08-19T13:49:31;9.23;;;5.15;;
7583;SDS011;3833;41.764;26.204;2022-08-19T13:51:59;7.45;;;4.68;;
7583;SDS011;3833;41.764;26.204;2022-08-19T13:54:26;6.70;;;5.18;;
7583;SDS011;3833;41.764;26.204;2022-08-19T13:56:54;6.22;;;4.88;;
7583;SDS011;3833;41.764;26.204;2022-08-19T13:59:24;7.15;;;4.78;;
7583;SDS011;3833;41.764;26.204;2022-08-19T14:01:51;6.30;;;4.28;;
7583;SDS011;3833;41.764;26.204;2022-08-19T14:04:18;7.88;;;4.93;;
7583;SDS011;3833;41.764;26.204;2022-08-19T14:06:45;9.18;;;4.70;;
7583;SDS011;3833;41.764;26.204;2022-08-19T14:09:11;7.47;;;4.82;;
7583;SDS011;3833;41.764;26.204;2022-08-19T14:11:38;5.82;;;4.75;;
7583;SDS011;3833;41.764;26.204;2022-08-19T14:14:10;6.55;;;4.75;;
7583;SDS011;3833;41.764;26.204;2022-08-19T14:16:37;5.75;;;5.22;;
7583;SDS011;3833;41.764;26.204;2022-08-19T14:19:04;6.43;;;5.27;;
7583;SDS011;3833;41.764;26.204;2022-08-19T14:21:32;5.20;;;4.78;;
7583;SDS011;3833;41.764;26.204;2022-08-19T14:24:00;5.73;;;4.77;;
7583;SDS011;3833;41.764;26.204;2022-08-19T14:26:28;5.83;;;5.33;;
7583;SDS011;3833;41.764;26.204;2022-08-19T14:28:55;5.33;;;4.90;;
7583;SDS011;3833;41.764;26.204;2022-08-19T14:31:24;5.50;;;5.00;;
7583;SDS011;3833;41.764;26.204;2022-08-19T14:33:51;10.27;;;5.17;;
7583;SDS011;3833;41.764;26.204;2022-08-19T14:36:18;7.67;;;5.63;;
7583;SDS011;3833;41.764;26.204;2022-08-19T14:38:46;5.83;;;5.10;;
7583;SDS011;3833;41.764;26.204;2022-08-19T14:41:14;7.17;;;5.10;;
7583;SDS011;3833;41.764;26.204;2022-08-19T14:43:46;6.50;;;5.30;;
7583;SDS011;3833;41.764;26.204;2022-08-19T14:46:18;9.27;;;5.40;;
7583;SDS011;3833;41.764;26.204;2022-08-19T14:48:48;5.80;;;4.70;;
7583;SDS011;3833;41.764;26.204;2022-08-19T14:51:15;6.67;;;4.73;;
7583;SDS011;3833;41.764;26.204;2022-08-19T14:53:43;5.73;;;5.13;;
7583;SDS011;3833;41.764;26.204;2022-08-19T14:56:11;7.13;;;5.23;;
7583;SDS011;3833;41.764;26.204;2022-08-19T14:58:43;6.73;;;5.40;;
7583;SDS011;3833;41.764;26.204;2022-08-19T15:01:10;9.20;;;4.93;;
7583;SDS011;3833;41.764;26.204;2022-08-19T15:03:37;5.53;;;5.03;;
7583;SDS011;3833;41.764;26.204;2022-08-19T15:06:07;7.47;;;5.37;;
7583;SDS011;3833;41.764;26.204;2022-08-19T15:08:35;6.53;;;4.97;;
7583;SDS011;3833;41.764;26.204;2022-08-19T15:11:07;5.80;;;5.03;;
7583;SDS011;3833;41.764;26.204;2022-08-19T15:13:35;7.00;;;5.90;;
7583;SDS011;3833;41.764;26.204;2022-08-19T15:16:03;6.73;;;5.20;;
7583;SDS011;3833;41.764;26.204;2022-08-19T15:18:30;7.40;;;5.33;;
7583;SDS011;3833;41.764;26.204;2022-08-19T15:20:57;7.27;;;5.23;;
7583;SDS011;3833;41.764;26.204;2022-08-19T15:23:26;6.57;;;5.67;;